sensor_id;sensor_type;location;lat;lon;timestamp;P1;durP1;ratioP1;P2;durP2;ratioP2
6791;SDS011;3433;48.730;9.108;2023-11-18T00:02:27;4.40;;;4.00;;
6791;SDS011;3433;48.730;9.108;2023-11-18T00:05:14;5.20;;;3.50;;
6791;SDS011;3433;48.730;9.108;2023-11-18T00:08:01;4.40;;;3.97;;
6791;SDS011;3433;48.730;9.108;2023-11-18T00:10:50;4.20;;;3.80;;
6791;SDS011;3433;48.730;9.108;2023-11-18T00:13:37;4.97;;;3.90;;
6791;SDS011;3433;48.730;9.108;2023-11-18T00:16:24;4.33;;;3.93;;
6791;SDS011;3433;48.730;9.108;2023-11-18T00:19:12;5.20;;;4.40;;
6791;SDS011;3433;48.730;9.108;2023-11-18T00:21:59;5.37;;;4.57;;
6791;SDS011;3433;48.730;9.108;2023-11-18T00:24:46;5.00;;;4.50;;
6791;SDS011;3433;48.730;9.108;2023-11-18T00:27:35;5.17;;;4.30;;
6791;SDS011;3433;48.730;9.108;2023-11-18T00:30:22;4.93;;;4.20;;
6791;SDS011;3433;48.730;9.108;2023-11-18T00:33:09;4.87;;;4.37;;
6791;SDS011;3433;48.730;9.108;2023-11-18T00:35:56;4.57;;;3.80;;
6791;SDS011;3433;48.730;9.108;2023-11-18T00:38:44;4.37;;;3.90;;
6791;SDS011;3433;48.730;9.108;2023-11-18T00:41:32;4.10;;;3.70;;
6791;SDS011;3433;48.730;9.108;2023-11-18T00:44:21;4.70;;;4.23;;
6791;SDS011;3433;48.730;9.108;2023-11-18T00:47:08;5.00;;;4.50;;
6791;SDS011;3433;48.730;9.108;2023-11-18T00:49:55;4.20;;;3.63;;
6791;SDS011;3433;48.730;9.108;2023-11-18T00:52:43;5.87;;;3.87;;
6791;SDS011;3433;48.730;9.108;2023-11-18T00:55:33;4.90;;;4.40;;
6791;SDS011;3433;48.730;9.108;2023-11-18T00:58:20;10.63;;;5.20;;
6791;SDS011;3433;48.730;9.108;2023-11-18T01:01:09;4.43;;;3.93;;
6791;SDS011;3433;48.730;9.108;2023-11-18T01:03:56;4.93;;;4.27;;
6791;SDS011;3433;48.730;9.108;2023-11-18T01:06:44;5.13;;;4.20;;
6791;SDS011;3433;48.730;9.108;2023-11-18T01:09:32;5.50;;;4.10;;
6791;SDS011;3433;48.730;9.108;2023-11-18T01:12:24;5.93;;;3.80;;
6791;SDS011;3433;48.730;9.108;2023-11-18T01:15:11;4.50;;;3.57;;
6791;SDS011;3433;48.730;9.108;2023-11-18T01:18:00;5.80;;;3.90;;
6791;SDS011;3433;48.730;9.108;2023-11-18T01:20:48;5.30;;;4.17;;
6791;SDS011;3433;48.730;9.108;2023-11-18T01:23:35;5.40;;;3.67;;
6791;SDS011;3433;48.730;9.108;2023-11-18T01:26:22;3.87;;;3.07;;
6791;SDS011;3433;48.730;9.108;2023-11-18T01:29:09;4.13;;;3.53;;
6791;SDS011;3433;48.730;9.108;2023-11-18T01:31:57;4.10;;;3.60;;
6791;SDS011;3433;48.730;9.108;2023-11-18T01:34:45;4.93;;;4.13;;
6791;SDS011;3433;48.730;9.108;2023-11-18T01:37:35;4.80;;;4.10;;
6791;SDS011;3433;48.730;9.108;2023-11-18T01:40:23;5.77;;;4.10;;
6791;SDS011;3433;48.730;9.108;2023-11-18T01:43:10;5.70;;;4.00;;
6791;SDS011;3433;48.730;9.108;2023-11-18T01:45:59;4.10;;;3.70;;
6791;SDS011;3433;48.730;9.108;2023-11-18T01:48:48;5.77;;;4.13;;
6791;SDS011;3433;48.730;9.108;2023-11-18T01:51:38;4.00;;;3.60;;
6791;SDS011;3433;48.730;9.108;2023-11-18T01:54:26;4.30;;;3.60;;
6791;SDS011;3433;48.730;9.108;2023-11-18T01:57:13;4.63;;;3.60;;
6791;SDS011;3433;48.730;9.108;2023-11-18T02:00:01;4.00;;;3.60;;
6791;SDS011;3433;48.730;9.108;2023-11-18T02:02:51;4.80;;;3.90;;
6791;SDS011;3433;48.730;9.108;2023-11-18T02:05:38;3.87;;;3.47;;
6791;SDS011;3433;48.730;9.108;2023-11-18T02:08:29;4.33;;;3.90;;
6791;SDS011;3433;48.730;9.108;2023-11-18T02:11:17;3.63;;;3.27;;
6791;SDS011;3433;48.730;9.108;2023-11-18T02:14:14;3.90;;;3.43;;
6791;SDS011;3433;48.730;9.108;2023-11-18T02:17:02;4.00;;;3.70;;
6791;SDS011;3433;48.730;9.108;2023-11-18T02:19:51;4.00;;;3.10;;
6791;SDS011;3433;48.730;9.108;2023-11-18T02:22:43;3.77;;;3.33;;
6791;SDS011;3433;48.730;9.108;2023-11-18T02:25:33;4.50;;;4.10;;
6791;SDS011;3433;48.730;9.108;2023-11-18T02:28:27;3.23;;;2.93;;
6791;SDS011;3433;48.730;9.108;2023-11-18T02:31:15;3.80;;;3.00;;
6791;SDS011;3433;48.730;9.108;2023-11-18T02:34:08;2.80;;;2.60;;
6791;SDS011;3433;48.730;9.108;2023-11-18T02:37:02;4.07;;;2.80;;
6791;SDS011;3433;48.730;9.108;2023-11-18T02:39:52;3.30;;;2.73;;
6791;SDS011;3433;48.730;9.108;2023-11-18T02:42:43;2.70;;;2.50;;
6791;SDS011;3433;48.730;9.108;2023-11-18T02:45:35;3.37;;;3.00;;
6791;SDS011;3433;48.730;9.108;2023-11-18T02:48:23;3.47;;;3.03;;
6791;SDS011;3433;48.730;9.108;2023-11-18T02:51:13;3.30;;;3.00;;
6791;SDS011;3433;48.730;9.108;2023-11-18T02:54:02;4.30;;;3.93;;
6791;SDS011;3433;48.730;9.108;2023-11-18T02:56:50;3.63;;;3.33;;
6791;SDS011;3433;48.730;9.108;2023-11-18T02:59:37;4.80;;;3.40;;
6791;SDS011;3433;48.730;9.108;2023-11-18T03:02:26;3.60;;;3.20;;
6791;SDS011;3433;48.730;9.108;2023-11-18T03:05:16;4.20;;;3.13;;
6791;SDS011;3433;48.730;9.108;2023-11-18T03:08:03;4.53;;;3.47;;
6791;SDS011;3433;48.730;9.108;2023-11-18T03:10:51;3.80;;;2.83;;
6791;SDS011;3433;48.730;9.108;2023-11-18T03:13:38;3.40;;;3.07;;
6791;SDS011;3433;48.730;9.108;2023-11-18T03:16:25;2.80;;;2.60;;
6791;SDS011;3433;48.730;9.108;2023-11-18T03:19:14;3.03;;;2.80;;
6791;SDS011;3433;48.730;9.108;2023-11-18T03:22:01;3.00;;;2.57;;
6791;SDS011;3433;48.730;9.108;2023-11-18T03:24:48;2.57;;;2.37;;
6791;SDS011;3433;48.730;9.108;2023-11-18T03:27:35;4.63;;;2.20;;
6791;SDS011;3433;48.730;9.108;2023-11-18T03:30:23;2.40;;;2.20;;
6791;SDS011;3433;48.730;9.108;2023-11-18T03:33:10;2.40;;;2.20;;
6791;SDS011;3433;48.730;9.108;2023-11-18T03:35:58;2.73;;;2.53;;
6791;SDS011;3433;48.730;9.108;2023-11-18T03:38:45;2.20;;;2.10;;
6791;SDS011;3433;48.730;9.108;2023-11-18T03:41:33;3.43;;;3.10;;
6791;SDS011;3433;48.730;9.108;2023-11-18T03:44:20;2.50;;;2.30;;
6791;SDS011;3433;48.730;9.108;2023-11-18T03:47:09;3.20;;;2.90;;
6791;SDS011;3433;48.730;9.108;2023-11-18T03:49:56;2.73;;;2.50;;
6791;SDS011;3433;48.730;9.108;2023-11-18T03:52:45;5.63;;;2.20;;
6791;SDS011;3433;48.730;9.108;2023-11-18T03:55:32;2.00;;;1.80;;
6791;SDS011;3433;48.730;9.108;2023-11-18T03:58:19;2.50;;;2.00;;
6791;SDS011;3433;48.730;9.108;2023-11-18T04:01:06;1.80;;;1.70;;
6791;SDS011;3433;48.730;9.108;2023-11-18T04:03:56;2.13;;;1.93;;
6791;SDS011;3433;48.730;9.108;2023-11-18T04:06:43;2.13;;;1.93;;
6791;SDS011;3433;48.730;9.108;2023-11-18T04:09:33;2.17;;;1.90;;
6791;SDS011;3433;48.730;9.108;2023-11-18T04:12:20;3.07;;;2.57;;
6791;SDS011;3433;48.730;9.108;2023-11-18T04:15:09;2.70;;;2.50;;
6791;SDS011;3433;48.730;9.108;2023-11-18T04:17:56;2.90;;;2.37;;
6791;SDS011;3433;48.730;9.108;2023-11-18T04:20:43;2.43;;;2.23;;
6791;SDS011;3433;48.730;9.108;2023-11-18T04:23:31;2.60;;;2.30;;
6791;SDS011;3433;48.730;9.108;2023-11-18T04:26:19;3.17;;;2.50;;
6791;SDS011;3433;48.730;9.108;2023-11-18T04:29:07;2.60;;;2.40;;
6791;SDS011;3433;48.730;9.108;2023-11-18T04:31:54;2.70;;;2.40;;
6791;SDS011;3433;48.730;9.108;2023-11-18T04:34:41;2.50;;;2.30;;
6791;SDS011;3433;48.730;9.108;2023-11-18T04:37:28;3.13;;;2.83;;
6791;SDS011;3433;48.730;9.108;2023-11-18T04:40:16;5.07;;;2.77;;
6791;SDS011;3433;48.730;9.108;2023-11-18T04:43:04;3.27;;;2.23;;
6791;SDS011;3433;48.730;9.108;2023-11-18T04:45:51;2.90;;;2.60;;
6791;SDS011;3433;48.730;9.108;2023-11-18T04:48:40;3.10;;;2.80;;
6791;SDS011;3433;48.730;9.108;2023-11-18T04:51:27;2.40;;;2.10;;
6791;SDS011;3433;48.730;9.108;2023-11-18T04:54:14;2.83;;;2.40;;
6791;SDS011;3433;48.730;9.108;2023-11-18T04:57:01;3.60;;;2.70;;
6791;SDS011;3433;48.730;9.108;2023-11-18T04:59:50;3.70;;;2.53;;
6791;SDS011;3433;48.730;9.108;2023-11-18T05:02:37;3.37;;;2.60;;
6791;SDS011;3433;48.730;9.108;2023-11-18T05:05:24;2.80;;;2.50;;
6791;SDS011;3433;48.730;9.108;2023-11-18T05:08:17;2.50;;;2.30;;
6791;SDS011;3433;48.730;9.108;2023-11-18T05:11:05;3.17;;;2.87;;
6791;SDS011;3433;48.730;9.108;2023-11-18T05:13:52;2.90;;;2.60;;
6791;SDS011;3433;48.730;9.108;2023-11-18T05:16:43;3.87;;;2.43;;
6791;SDS011;3433;48.730;9.108;2023-11-18T05:19:30;3.90;;;2.87;;
6791;SDS011;3433;48.730;9.108;2023-11-18T05:22:17;3.70;;;2.50;;
6791;SDS011;3433;48.730;9.108;2023-11-18T05:25:05;4.40;;;3.30;;
6791;SDS011;3433;48.730;9.108;2023-11-18T05:27:52;4.07;;;2.70;;
6791;SDS011;3433;48.730;9.108;2023-11-18T05:30:41;3.40;;;2.63;;
6791;SDS011;3433;48.730;9.108;2023-11-18T05:33:29;3.20;;;2.90;;
6791;SDS011;3433;48.730;9.108;2023-11-18T05:36:17;6.70;;;3.40;;
6791;SDS011;3433;48.730;9.108;2023-11-18T05:39:12;4.20;;;2.93;;
6791;SDS011;3433;48.730;9.108;2023-11-18T05:42:00;4.70;;;2.80;;
6791;SDS011;3433;48.730;9.108;2023-11-18T05:44:47;4.80;;;3.60;;
6791;SDS011;3433;48.730;9.108;2023-11-18T05:47:34;6.90;;;3.33;;
6791;SDS011;3433;48.730;9.108;2023-11-18T05:50:23;4.10;;;3.20;;
6791;SDS011;3433;48.730;9.108;2023-11-18T05:53:11;4.63;;;3.10;;
6791;SDS011;3433;48.730;9.108;2023-11-18T05:55:58;6.53;;;4.17;;
6791;SDS011;3433;48.730;9.108;2023-11-18T05:58:46;5.37;;;4.43;;
6791;SDS011;3433;48.730;9.108;2023-11-18T06:01:33;5.60;;;4.13;;
6791;SDS011;3433;48.730;9.108;2023-11-18T06:04:22;4.60;;;3.97;;
6791;SDS011;3433;48.730;9.108;2023-11-18T06:07:12;5.40;;;3.80;;
6791;SDS011;3433;48.730;9.108;2023-11-18T06:10:00;6.20;;;5.03;;
6791;SDS011;3433;48.730;9.108;2023-11-18T06:12:50;5.93;;;4.33;;
6791;SDS011;3433;48.730;9.108;2023-11-18T06:15:38;5.77;;;4.60;;
6791;SDS011;3433;48.730;9.108;2023-11-18T06:18:25;6.20;;;5.00;;
6791;SDS011;3433;48.730;9.108;2023-11-18T06:21:13;6.07;;;4.93;;
6791;SDS011;3433;48.730;9.108;2023-11-18T06:24:03;5.83;;;4.77;;
6791;SDS011;3433;48.730;9.108;2023-11-18T06:26:51;7.00;;;5.43;;
6791;SDS011;3433;48.730;9.108;2023-11-18T06:29:38;10.27;;;6.00;;
6791;SDS011;3433;48.730;9.108;2023-11-18T06:32:25;8.00;;;6.00;;
6791;SDS011;3433;48.730;9.108;2023-11-18T06:35:13;9.43;;;6.20;;
6791;SDS011;3433;48.730;9.108;2023-11-18T06:38:00;8.60;;;6.30;;
6791;SDS011;3433;48.730;9.108;2023-11-18T06:40:49;10.70;;;6.30;;
6791;SDS011;3433;48.730;9.108;2023-11-18T06:43:38;7.90;;;6.10;;
6791;SDS011;3433;48.730;9.108;2023-11-18T06:46:37;7.70;;;5.17;;
6791;SDS011;3433;48.730;9.108;2023-11-18T06:49:25;10.43;;;6.30;;
6791;SDS011;3433;48.730;9.108;2023-11-18T06:52:15;9.17;;;6.30;;
6791;SDS011;3433;48.730;9.108;2023-11-18T06:55:02;10.60;;;6.60;;
6791;SDS011;3433;48.730;9.108;2023-11-18T06:57:51;8.20;;;6.00;;
6791;SDS011;3433;48.730;9.108;2023-11-18T07:00:39;7.67;;;5.70;;
6791;SDS011;3433;48.730;9.108;2023-11-18T07:03:26;7.30;;;5.50;;
6791;SDS011;3433;48.730;9.108;2023-11-18T07:06:16;8.67;;;6.23;;
6791;SDS011;3433;48.730;9.108;2023-11-18T07:09:08;8.40;;;5.93;;
6791;SDS011;3433;48.730;9.108;2023-11-18T07:11:58;7.90;;;6.03;;
6791;SDS011;3433;48.730;9.108;2023-11-18T07:14:48;8.07;;;5.93;;
6791;SDS011;3433;48.730;9.108;2023-11-18T07:17:35;8.23;;;5.70;;
6791;SDS011;3433;48.730;9.108;2023-11-18T07:20:23;8.50;;;5.80;;
6791;SDS011;3433;48.730;9.108;2023-11-18T07:23:10;7.67;;;5.50;;
6791;SDS011;3433;48.730;9.108;2023-11-18T07:25:57;6.70;;;5.00;;
6791;SDS011;3433;48.730;9.108;2023-11-18T07:28:44;9.73;;;5.90;;
6791;SDS011;3433;48.730;9.108;2023-11-18T07:31:33;8.67;;;5.53;;
6791;SDS011;3433;48.730;9.108;2023-11-18T07:34:21;10.47;;;6.03;;
6791;SDS011;3433;48.730;9.108;2023-11-18T07:37:09;7.80;;;5.63;;
6791;SDS011;3433;48.730;9.108;2023-11-18T07:39:58;7.80;;;5.37;;
6791;SDS011;3433;48.730;9.108;2023-11-18T07:42:46;6.63;;;5.40;;
6791;SDS011;3433;48.730;9.108;2023-11-18T07:45:34;7.83;;;5.50;;
6791;SDS011;3433;48.730;9.108;2023-11-18T07:48:25;7.10;;;4.90;;
6791;SDS011;3433;48.730;9.108;2023-11-18T07:51:13;10.47;;;4.77;;
6791;SDS011;3433;48.730;9.108;2023-11-18T07:54:00;6.43;;;5.43;;
6791;SDS011;3433;48.730;9.108;2023-11-18T07:56:49;6.30;;;4.80;;
6791;SDS011;3433;48.730;9.108;2023-11-18T07:59:36;5.87;;;4.90;;
6791;SDS011;3433;48.730;9.108;2023-11-18T08:02:23;7.43;;;4.60;;
6791;SDS011;3433;48.730;9.108;2023-11-18T08:05:12;6.50;;;4.50;;
6791;SDS011;3433;48.730;9.108;2023-11-18T08:08:00;6.97;;;4.10;;
6791;SDS011;3433;48.730;9.108;2023-11-18T08:10:47;7.10;;;5.17;;
6791;SDS011;3433;48.730;9.108;2023-11-18T08:13:35;7.40;;;4.37;;
6791;SDS011;3433;48.730;9.108;2023-11-18T08:16:22;5.87;;;4.00;;
6791;SDS011;3433;48.730;9.108;2023-11-18T08:19:10;6.10;;;4.23;;
6791;SDS011;3433;48.730;9.108;2023-11-18T08:21:58;6.30;;;3.50;;
6791;SDS011;3433;48.730;9.108;2023-11-18T08:24:47;5.07;;;3.90;;
6791;SDS011;3433;48.730;9.108;2023-11-18T08:27:35;4.10;;;3.20;;
6791;SDS011;3433;48.730;9.108;2023-11-18T08:30:22;4.40;;;4.00;;
6791;SDS011;3433;48.730;9.108;2023-11-18T08:33:09;7.50;;;3.70;;
6791;SDS011;3433;48.730;9.108;2023-11-18T08:35:58;5.13;;;3.53;;
6791;SDS011;3433;48.730;9.108;2023-11-18T08:38:46;5.90;;;3.77;;
6791;SDS011;3433;48.730;9.108;2023-11-18T08:41:34;7.20;;;3.60;;
6791;SDS011;3433;48.730;9.108;2023-11-18T08:44:21;4.83;;;3.17;;
6791;SDS011;3433;48.730;9.108;2023-11-18T08:47:09;5.53;;;3.40;;
6791;SDS011;3433;48.730;9.108;2023-11-18T08:49:58;6.00;;;3.40;;
6791;SDS011;3433;48.730;9.108;2023-11-18T08:52:57;3.30;;;3.00;;
6791;SDS011;3433;48.730;9.108;2023-11-18T08:55:45;5.77;;;3.10;;
6791;SDS011;3433;48.730;9.108;2023-11-18T08:58:40;3.70;;;3.10;;
6791;SDS011;3433;48.730;9.108;2023-11-18T09:01:30;5.73;;;3.33;;
6791;SDS011;3433;48.730;9.108;2023-11-18T09:04:17;4.40;;;3.03;;
6791;SDS011;3433;48.730;9.108;2023-11-18T09:07:06;2.77;;;2.57;;
6791;SDS011;3433;48.730;9.108;2023-11-18T09:09:55;4.50;;;3.00;;
6791;SDS011;3433;48.730;9.108;2023-11-18T09:12:45;3.83;;;2.43;;
6791;SDS011;3433;48.730;9.108;2023-11-18T09:15:34;3.50;;;2.40;;
6791;SDS011;3433;48.730;9.108;2023-11-18T09:18:22;3.30;;;2.13;;
6791;SDS011;3433;48.730;9.108;2023-11-18T09:21:10;3.60;;;2.70;;
6791;SDS011;3433;48.730;9.108;2023-11-18T09:23:59;2.23;;;1.80;;
6791;SDS011;3433;48.730;9.108;2023-11-18T09:26:50;1.70;;;1.60;;
6791;SDS011;3433;48.730;9.108;2023-11-18T09:29:38;1.80;;;1.70;;
6791;SDS011;3433;48.730;9.108;2023-11-18T09:32:26;4.77;;;1.70;;
6791;SDS011;3433;48.730;9.108;2023-11-18T09:35:14;2.70;;;2.10;;
6791;SDS011;3433;48.730;9.108;2023-11-18T09:38:02;2.90;;;2.50;;
6791;SDS011;3433;48.730;9.108;2023-11-18T09:40:51;1.70;;;1.60;;
6791;SDS011;3433;48.730;9.108;2023-11-18T09:43:40;2.27;;;1.60;;
6791;SDS011;3433;48.730;9.108;2023-11-18T09:46:32;2.33;;;1.73;;
6791;SDS011;3433;48.730;9.108;2023-11-18T09:49:26;2.60;;;1.77;;
6791;SDS011;3433;48.730;9.108;2023-11-18T09:52:19;1.60;;;1.40;;
6791;SDS011;3433;48.730;9.108;2023-11-18T09:55:11;1.70;;;1.60;;
6791;SDS011;3433;48.730;9.108;2023-11-18T09:58:09;3.10;;;1.60;;
6791;SDS011;3433;48.730;9.108;2023-11-18T10:01:02;1.73;;;1.60;;
6791;SDS011;3433;48.730;9.108;2023-11-18T10:03:51;2.30;;;1.83;;
6791;SDS011;3433;48.730;9.108;2023-11-18T10:06:39;2.83;;;1.93;;
6791;SDS011;3433;48.730;9.108;2023-11-18T10:09:30;2.50;;;2.03;;
6791;SDS011;3433;48.730;9.108;2023-11-18T10:12:22;1.97;;;1.80;;
6791;SDS011;3433;48.730;9.108;2023-11-18T10:15:13;6.33;;;2.70;;
6791;SDS011;3433;48.730;9.108;2023-11-18T10:18:02;2.70;;;1.90;;
6791;SDS011;3433;48.730;9.108;2023-11-18T10:20:54;2.53;;;1.70;;
6791;SDS011;3433;48.730;9.108;2023-11-18T10:23:42;2.23;;;1.50;;
6791;SDS011;3433;48.730;9.108;2023-11-18T10:26:53;1.37;;;1.10;;
6791;SDS011;3433;48.730;9.108;2023-11-18T10:29:42;2.80;;;1.47;;
6791;SDS011;3433;48.730;9.108;2023-11-18T10:32:29;1.40;;;1.30;;
6791;SDS011;3433;48.730;9.108;2023-11-18T10:35:20;1.70;;;1.37;;
6791;SDS011;3433;48.730;9.108;2023-11-18T10:38:09;1.33;;;1.20;;
6791;SDS011;3433;48.730;9.108;2023-11-18T10:40:57;1.67;;;1.40;;
6791;SDS011;3433;48.730;9.108;2023-11-18T10:43:46;1.33;;;1.10;;
6791;SDS011;3433;48.730;9.108;2023-11-18T10:46:34;2.37;;;1.50;;
6791;SDS011;3433;48.730;9.108;2023-11-18T10:49:21;2.23;;;1.40;;
6791;SDS011;3433;48.730;9.108;2023-11-18T10:52:09;1.97;;;1.37;;
6791;SDS011;3433;48.730;9.108;2023-11-18T10:54:59;3.03;;;1.63;;
6791;SDS011;3433;48.730;9.108;2023-11-18T10:57:57;2.97;;;1.50;;
6791;SDS011;3433;48.730;9.108;2023-11-18T11:00:47;5.97;;;1.60;;
6791;SDS011;3433;48.730;9.108;2023-11-18T11:03:37;2.50;;;1.60;;
6791;SDS011;3433;48.730;9.108;2023-11-18T11:06:41;7.17;;;2.07;;
6791;SDS011;3433;48.730;9.108;2023-11-18T11:09:31;2.47;;;1.40;;
6791;SDS011;3433;48.730;9.108;2023-11-18T11:12:22;2.60;;;2.10;;
6791;SDS011;3433;48.730;9.108;2023-11-18T11:15:12;3.87;;;2.73;;
6791;SDS011;3433;48.730;9.108;2023-11-18T11:18:07;1.57;;;1.47;;
6791;SDS011;3433;48.730;9.108;2023-11-18T11:21:07;2.10;;;1.53;;
6791;SDS011;3433;48.730;9.108;2023-11-18T11:24:04;1.53;;;1.40;;
6791;SDS011;3433;48.730;9.108;2023-11-18T11:26:59;2.00;;;1.20;;
6791;SDS011;3433;48.730;9.108;2023-11-18T11:29:54;1.30;;;1.20;;
6791;SDS011;3433;48.730;9.108;2023-11-18T11:32:57;1.30;;;1.20;;
6791;SDS011;3433;48.730;9.108;2023-11-18T11:35:57;1.70;;;1.60;;
6791;SDS011;3433;48.730;9.108;2023-11-18T11:38:49;3.07;;;1.20;;
6791;SDS011;3433;48.730;9.108;2023-11-18T11:41:43;2.23;;;1.10;;
6791;SDS011;3433;48.730;9.108;2023-11-18T11:44:31;3.20;;;1.80;;
6791;SDS011;3433;48.730;9.108;2023-11-18T11:47:27;2.30;;;1.60;;
6791;SDS011;3433;48.730;9.108;2023-11-18T11:50:22;1.47;;;1.37;;
6791;SDS011;3433;48.730;9.108;2023-11-18T11:53:19;2.90;;;2.63;;
6791;SDS011;3433;48.730;9.108;2023-11-18T11:56:09;1.30;;;1.20;;
6791;SDS011;3433;48.730;9.108;2023-11-18T11:58:59;1.73;;;1.17;;
6791;SDS011;3433;48.730;9.108;2023-11-18T12:01:48;1.87;;;1.70;;
6791;SDS011;3433;48.730;9.108;2023-11-18T12:04:39;2.90;;;1.70;;
6791;SDS011;3433;48.730;9.108;2023-11-18T12:07:27;5.00;;;1.27;;
6791;SDS011;3433;48.730;9.108;2023-11-18T12:10:17;1.43;;;1.30;;
6791;SDS011;3433;48.730;9.108;2023-11-18T12:13:07;1.70;;;1.40;;
6791;SDS011;3433;48.730;9.108;2023-11-18T12:15:55;2.53;;;1.87;;
6791;SDS011;3433;48.730;9.108;2023-11-18T12:18:43;1.83;;;1.20;;
6791;SDS011;3433;48.730;9.108;2023-11-18T12:22:10;1.40;;;1.30;;
6791;SDS011;3433;48.730;9.108;2023-11-18T12:28:24;2.37;;;1.80;;
6791;SDS011;3433;48.730;9.108;2023-11-18T12:31:13;2.37;;;1.40;;
6791;SDS011;3433;48.730;9.108;2023-11-18T12:34:48;2.00;;;1.63;;
6791;SDS011;3433;48.730;9.108;2023-11-18T12:37:51;2.07;;;1.83;;
6791;SDS011;3433;48.730;9.108;2023-11-18T12:41:00;2.17;;;1.67;;
6791;SDS011;3433;48.730;9.108;2023-11-18T12:43:55;3.90;;;1.80;;
6791;SDS011;3433;48.730;9.108;2023-11-18T12:46:54;3.93;;;1.53;;
6791;SDS011;3433;48.730;9.108;2023-11-18T12:49:54;2.10;;;1.70;;
6791;SDS011;3433;48.730;9.108;2023-11-18T12:52:42;4.90;;;2.87;;
6791;SDS011;3433;48.730;9.108;2023-11-18T12:55:32;3.10;;;2.03;;
6791;SDS011;3433;48.730;9.108;2023-11-18T12:58:20;3.07;;;1.80;;
6791;SDS011;3433;48.730;9.108;2023-11-18T13:01:08;3.90;;;1.67;;
6791;SDS011;3433;48.730;9.108;2023-11-18T13:03:59;3.30;;;1.90;;
6791;SDS011;3433;48.730;9.108;2023-11-18T13:06:47;4.77;;;2.50;;
6791;SDS011;3433;48.730;9.108;2023-11-18T13:09:36;3.17;;;2.10;;
6791;SDS011;3433;48.730;9.108;2023-11-18T13:12:27;3.23;;;1.70;;
6791;SDS011;3433;48.730;9.108;2023-11-18T13:15:15;1.83;;;1.70;;
6791;SDS011;3433;48.730;9.108;2023-11-18T13:18:03;3.17;;;1.83;;
6791;SDS011;3433;48.730;9.108;2023-11-18T13:20:55;3.67;;;2.20;;
6791;SDS011;3433;48.730;9.108;2023-11-18T13:23:47;2.53;;;1.80;;
6791;SDS011;3433;48.730;9.108;2023-11-18T13:26:35;2.20;;;1.97;;
6791;SDS011;3433;48.730;9.108;2023-11-18T13:29:25;4.67;;;2.27;;
6791;SDS011;3433;48.730;9.108;2023-11-18T13:32:12;4.30;;;2.23;;
6791;SDS011;3433;48.730;9.108;2023-11-18T13:35:00;1.97;;;1.80;;
6791;SDS011;3433;48.730;9.108;2023-11-18T13:37:48;2.53;;;2.07;;
6791;SDS011;3433;48.730;9.108;2023-11-18T13:40:42;2.70;;;2.03;;
6791;SDS011;3433;48.730;9.108;2023-11-18T13:43:40;7.20;;;2.60;;
6791;SDS011;3433;48.730;9.108;2023-11-18T13:46:29;4.17;;;2.90;;
6791;SDS011;3433;48.730;9.108;2023-11-18T13:49:19;2.97;;;2.73;;
6791;SDS011;3433;48.730;9.108;2023-11-18T13:52:07;3.57;;;2.73;;
6791;SDS011;3433;48.730;9.108;2023-11-18T13:54:56;10.13;;;3.10;;
6791;SDS011;3433;48.730;9.108;2023-11-18T13:57:44;3.30;;;2.90;;
6791;SDS011;3433;48.730;9.108;2023-11-18T14:00:32;5.17;;;3.10;;
6791;SDS011;3433;48.730;9.108;2023-11-18T14:03:34;3.90;;;2.90;;
6791;SDS011;3433;48.730;9.108;2023-11-18T14:06:23;5.37;;;3.00;;
6791;SDS011;3433;48.730;9.108;2023-11-18T14:09:12;4.07;;;2.60;;
6791;SDS011;3433;48.730;9.108;2023-11-18T14:12:01;6.33;;;2.90;;
6791;SDS011;3433;48.730;9.108;2023-11-18T14:14:50;3.70;;;3.20;;
6791;SDS011;3433;48.730;9.108;2023-11-18T14:17:38;4.17;;;3.00;;
6791;SDS011;3433;48.730;9.108;2023-11-18T14:20:27;20.73;;;3.57;;
6791;SDS011;3433;48.730;9.108;2023-11-18T14:23:16;3.83;;;2.93;;
6791;SDS011;3433;48.730;9.108;2023-11-18T14:26:04;5.13;;;3.10;;
6791;SDS011;3433;48.730;9.108;2023-11-18T14:28:53;4.83;;;3.13;;
6791;SDS011;3433;48.730;9.108;2023-11-18T14:31:40;3.07;;;2.43;;
6791;SDS011;3433;48.730;9.108;2023-11-18T14:34:27;4.70;;;3.40;;
6791;SDS011;3433;48.730;9.108;2023-11-18T14:37:16;4.00;;;2.60;;
6791;SDS011;3433;48.730;9.108;2023-11-18T14:40:05;4.27;;;3.03;;
6791;SDS011;3433;48.730;9.108;2023-11-18T14:42:54;3.30;;;2.80;;
6791;SDS011;3433;48.730;9.108;2023-11-18T14:45:41;3.33;;;2.77;;
6791;SDS011;3433;48.730;9.108;2023-11-18T14:48:28;3.93;;;3.20;;
6791;SDS011;3433;48.730;9.108;2023-11-18T14:51:16;6.80;;;3.77;;
6791;SDS011;3433;48.730;9.108;2023-11-18T14:54:04;3.90;;;3.17;;
6791;SDS011;3433;48.730;9.108;2023-11-18T14:56:52;7.23;;;4.50;;
6791;SDS011;3433;48.730;9.108;2023-11-18T14:59:39;5.50;;;4.23;;
6791;SDS011;3433;48.730;9.108;2023-11-18T15:02:27;8.43;;;4.33;;
6791;SDS011;3433;48.730;9.108;2023-11-18T15:05:14;5.10;;;4.60;;
6791;SDS011;3433;48.730;9.108;2023-11-18T15:08:03;5.83;;;4.03;;
6791;SDS011;3433;48.730;9.108;2023-11-18T15:10:56;6.93;;;3.17;;
6791;SDS011;3433;48.730;9.108;2023-11-18T15:13:44;5.60;;;3.60;;
6791;SDS011;3433;48.730;9.108;2023-11-18T15:16:31;6.43;;;3.57;;
6791;SDS011;3433;48.730;9.108;2023-11-18T15:19:18;5.17;;;3.70;;
6791;SDS011;3433;48.730;9.108;2023-11-18T15:22:05;3.53;;;3.17;;
6791;SDS011;3433;48.730;9.108;2023-11-18T15:24:53;5.37;;;3.83;;
6791;SDS011;3433;48.730;9.108;2023-11-18T15:27:46;5.57;;;3.60;;
6791;SDS011;3433;48.730;9.108;2023-11-18T15:30:34;9.63;;;3.30;;
6791;SDS011;3433;48.730;9.108;2023-11-18T15:33:22;4.90;;;3.90;;
6791;SDS011;3433;48.730;9.108;2023-11-18T15:36:10;7.57;;;4.23;;
6791;SDS011;3433;48.730;9.108;2023-11-18T15:38:58;3.83;;;3.43;;
6791;SDS011;3433;48.730;9.108;2023-11-18T15:41:48;3.90;;;3.50;;
6791;SDS011;3433;48.730;9.108;2023-11-18T15:44:37;4.70;;;3.37;;
6791;SDS011;3433;48.730;9.108;2023-11-18T15:47:25;6.53;;;3.43;;
6791;SDS011;3433;48.730;9.108;2023-11-18T15:50:13;3.20;;;2.87;;
6791;SDS011;3433;48.730;9.108;2023-11-18T15:53:01;5.73;;;3.53;;
6791;SDS011;3433;48.730;9.108;2023-11-18T15:55:48;3.80;;;3.40;;
6791;SDS011;3433;48.730;9.108;2023-11-18T15:58:37;6.43;;;3.47;;
6791;SDS011;3433;48.730;9.108;2023-11-18T16:01:26;4.53;;;4.13;;
6791;SDS011;3433;48.730;9.108;2023-11-18T16:04:13;7.63;;;4.60;;
6791;SDS011;3433;48.730;9.108;2023-11-18T16:07:00;7.87;;;4.27;;
6791;SDS011;3433;48.730;9.108;2023-11-18T16:09:47;6.13;;;4.30;;
6791;SDS011;3433;48.730;9.108;2023-11-18T16:12:36;8.77;;;4.57;;
6791;SDS011;3433;48.730;9.108;2023-11-18T16:15:24;5.53;;;4.60;;
6791;SDS011;3433;48.730;9.108;2023-11-18T16:18:13;8.93;;;4.87;;
6791;SDS011;3433;48.730;9.108;2023-11-18T16:21:01;8.03;;;5.33;;
6791;SDS011;3433;48.730;9.108;2023-11-18T16:23:49;6.87;;;5.80;;
6791;SDS011;3433;48.730;9.108;2023-11-18T16:26:36;8.87;;;4.70;;
6791;SDS011;3433;48.730;9.108;2023-11-18T16:29:25;6.47;;;4.83;;
6791;SDS011;3433;48.730;9.108;2023-11-18T16:32:12;10.20;;;5.83;;
6791;SDS011;3433;48.730;9.108;2023-11-18T16:35:02;7.73;;;4.70;;
6791;SDS011;3433;48.730;9.108;2023-11-18T16:37:51;5.27;;;4.73;;
6791;SDS011;3433;48.730;9.108;2023-11-18T16:40:40;7.40;;;4.53;;
6791;SDS011;3433;48.730;9.108;2023-11-18T16:43:27;6.93;;;4.70;;
6791;SDS011;3433;48.730;9.108;2023-11-18T16:46:14;5.30;;;4.20;;
6791;SDS011;3433;48.730;9.108;2023-11-18T16:49:01;6.73;;;4.90;;
6791;SDS011;3433;48.730;9.108;2023-11-18T16:51:50;6.50;;;4.00;;
6791;SDS011;3433;48.730;9.108;2023-11-18T16:54:39;5.40;;;4.60;;
6791;SDS011;3433;48.730;9.108;2023-11-18T16:57:26;5.43;;;3.90;;
6791;SDS011;3433;48.730;9.108;2023-11-18T17:00:14;3.60;;;3.30;;
6791;SDS011;3433;48.730;9.108;2023-11-18T17:03:07;3.73;;;3.40;;
6791;SDS011;3433;48.730;9.108;2023-11-18T17:05:55;4.90;;;3.97;;
6791;SDS011;3433;48.730;9.108;2023-11-18T17:08:43;7.20;;;3.60;;
6791;SDS011;3433;48.730;9.108;2023-11-18T17:11:30;5.80;;;3.90;;
6791;SDS011;3433;48.730;9.108;2023-11-18T17:14:18;4.73;;;3.60;;
6791;SDS011;3433;48.730;9.108;2023-11-18T17:17:05;3.20;;;2.90;;
6791;SDS011;3433;48.730;9.108;2023-11-18T17:19:53;5.10;;;2.70;;
6791;SDS011;3433;48.730;9.108;2023-11-18T17:22:41;3.13;;;2.83;;
6791;SDS011;3433;48.730;9.108;2023-11-18T17:25:30;3.17;;;2.73;;
6791;SDS011;3433;48.730;9.108;2023-11-18T17:28:17;3.30;;;2.90;;
6791;SDS011;3433;48.730;9.108;2023-11-18T17:31:05;2.73;;;2.30;;
6791;SDS011;3433;48.730;9.108;2023-11-18T17:33:52;4.53;;;3.00;;
6791;SDS011;3433;48.730;9.108;2023-11-18T17:36:40;4.30;;;3.70;;